Time;durP1;ratioP1;P1;durP2;ratioP2;P2;SDS_P1;SDS_P2;PMS_P1;PMS_P2;Temp;Humidity;BMP_temperature;BMP_pressure;BME280_temperature;BME280_humidity;BME280_pressure;Samples;Min_cycle;Max_cycle;Signal;HPM_P1;HPM_P2
2023/09/11 00:01:40;;;;;;;;;;;;;;;18.51;40.74;100671.00;4925518;28;98471;-75
2023/09/11 00:04:08;;;;;;;;;;;;;;;18.57;40.53;100672.47;4922991;28;99454;-75
2023/09/11 00:06:34;;;;;;;;;;;;;;;18.62;40.54;100671.50;4904071;28;98539;-67
2023/09/11 00:09:00;;;;;;;;;;;;;;;18.63;40.60;100673.13;4921445;28;100239;-75
2023/09/11 00:11:27;;;;;;;;;;;;;;;18.63;40.59;100675.88;4934310;28;98472;-67
2023/09/11 00:13:53;;;;;;;;;;;;;;;18.61;40.46;100670.72;4922616;28;98307;-67
2023/09/11 00:16:20;;;;;;;;;;;;;;;18.57;40.66;100667.00;4926411;28;99978;-67
2023/09/11 00:18:46;;;;;;;;;;;;;;;18.53;40.55;100662.50;4918732;28;98889;-67
2023/09/11 00:21:12;;;;;;;;;;;;;;;18.49;40.77;100664.25;4924602;28;98018;-67
2023/09/11 00:23:39;;;;;;;;;;;;;;;18.48;40.68;100662.66;4904090;28;98753;-75
2023/09/11 00:26:05;;;;;;;;;;;;;;;18.45;40.63;100664.06;4920008;28;99485;-66
2023/09/11 00:28:32;;;;;;;;;;;;;;;18.44;40.77;100665.19;4899682;28;99446;-67
2023/09/11 00:31:03;;;;;;;;;;;;;;;18.45;40.85;100668.72;4941629;28;99903;-75
2023/09/11 00:33:29;;;;;;;;;;;;;;;18.44;40.81;100670.66;4926633;28;99541;-67
2023/09/11 00:35:56;;;;;;;;;;;;;;;18.41;40.88;100668.56;4927826;28;98164;-74
2023/09/11 00:38:23;;;;;;;;;;;;;;;18.37;40.63;100673.84;4926898;28;98435;-66
2023/09/11 00:40:49;;;;;;;;;;;;;;;18.34;40.66;100671.72;4927446;28;98848;-74
2023/09/11 00:43:16;;;;;;;;;;;;;;;18.31;40.67;100664.19;4927070;28;98654;-66
2023/09/11 00:45:42;;;;;;;;;;;;;;;18.26;40.82;100660.78;4927360;28;97970;-75
2023/09/11 00:48:09;;;;;;;;;;;;;;;18.23;40.88;100670.38;4927498;28;98282;-67
2023/09/11 00:50:37;;;;;;;;;;;;;;;18.20;40.90;100664.78;4926335;28;98249;-66
2023/09/11 00:53:05;;;;;;;;;;;;;;;18.18;40.93;100656.09;4909142;28;98369;-67
2023/09/11 00:55:34;;;;;;;;;;;;;;;18.16;40.74;100656.41;4923633;28;97953;-75
2023/09/11 00:58:02;;;;;;;;;;;;;;;18.13;40.94;100646.94;4926116;28;98065;-67
2023/09/11 01:00:29;;;;;;;;;;;;;;;18.12;40.93;100655.44;4931642;28;98378;-75
2023/09/11 01:02:57;;;;;;;;;;;;;;;18.10;40.98;100652.19;4925167;28;97921;-75
2023/09/11 01:05:24;;;;;;;;;;;;;;;18.07;40.77;100650.09;4907116;28;98497;-74
2023/09/11 01:07:52;;;;;;;;;;;;;;;18.03;41.13;100649.09;4929291;28;99152;-67
2023/09/11 01:10:19;;;;;;;;;;;;;;;17.99;40.99;100648.13;4926737;28;98781;-74
2023/09/11 01:12:45;;;;;;;;;;;;;;;17.96;40.87;100649.56;4928305;28;98116;-67
2023/09/11 01:15:12;;;;;;;;;;;;;;;17.94;40.57;100640.09;4905602;28;98750;-75
2023/09/11 01:17:59;;;;;;;;;;;;;;;17.90;40.74;100648.06;4927790;28;97966;-75
2023/09/11 01:20:37;;;;;;;;;;;;;;;17.85;41.00;100638.13;4954101;28;98505;-67
2023/09/11 01:23:23;;;;;;;;;;;;;;;17.84;40.95;100647.41;4924028;28;97991;-66
2023/09/11 01:26:15;;;;;;;;;;;;;;;17.81;40.94;100639.84;4930007;28;98729;-67
2023/09/11 01:29:17;;;;;;;;;;;;;;;17.81;40.99;100647.22;4945625;28;98426;-74
2023/09/11 01:31:46;;;;;;;;;;;;;;;17.78;40.82;100639.66;4940284;28;100127;-74
2023/09/11 01:34:13;;;;;;;;;;;;;;;17.76;40.82;100650.06;4944888;28;98316;-74
2023/09/11 01:36:40;;;;;;;;;;;;;;;17.73;40.81;100643.31;4928041;28;98422;-67
2023/09/11 01:39:06;;;;;;;;;;;;;;;17.72;40.80;100646.31;4929718;28;99041;-74
2023/09/11 01:41:33;;;;;;;;;;;;;;;17.67;40.98;100637.16;4944768;28;99813;-74
2023/09/11 01:44:23;;;;;;;;;;;;;;;17.64;40.84;100642.41;4944875;28;98206;-74
2023/09/11 01:46:51;;;;;;;;;;;;;;;17.61;40.94;100641.13;4929576;28;98716;-67
2023/09/11 01:49:19;;;;;;;;;;;;;;;17.60;40.85;100636.78;4930409;28;98205;-67
2023/09/11 01:51:47;;;;;;;;;;;;;;;17.58;40.80;100639.03;4926420;28;98604;-66
2023/09/11 01:54:15;;;;;;;;;;;;;;;17.55;40.99;100630.66;4924194;28;98967;-74
2023/09/11 01:56:41;;;;;;;;;;;;;;;17.52;40.93;100639.44;4903599;28;99590;-67
2023/09/11 01:59:08;;;;;;;;;;;;;;;17.49;41.06;100635.44;4930148;28;98272;-67
2023/09/11 02:01:34;;;;;;;;;;;;;;;17.46;41.00;100632.53;4921164;28;102148;-67
2023/09/11 02:04:00;;;;;;;;;;;;;;;17.41;40.93;100633.47;4926552;28;98257;-67
2023/09/11 02:06:27;;;;;;;;;;;;;;;17.37;40.97;100629.72;4912015;28;100313;-67
2023/09/11 02:08:55;;;;;;;;;;;;;;;17.34;40.93;100636.59;4927381;28;98655;-67
2023/09/11 02:11:22;;;;;;;;;;;;;;;17.31;41.13;100626.31;4920847;28;98822;-66
2023/09/11 02:13:49;;;;;;;;;;;;;;;17.29;41.04;100628.56;4926712;28;97854;-66
2023/09/11 02:16:16;;;;;;;;;;;;;;;17.25;41.10;100630.28;4921793;28;98049;-66
2023/09/11 02:18:43;;;;;;;;;;;;;;;17.21;40.99;100623.81;4929582;28;98837;-74
2023/09/11 02:21:10;;;;;;;;;;;;;;;17.20;41.08;100624.13;4929347;28;98511;-66
2023/09/11 02:23:37;;;;;;;;;;;;;;;17.18;41.00;100621.72;4923884;28;100149;-66
2023/09/11 02:26:04;;;;;;;;;;;;;;;17.15;41.08;100625.88;4920288;28;98796;-66
2023/09/11 02:28:31;;;;;;;;;;;;;;;17.11;40.98;100624.88;4925315;28;98143;-74
2023/09/11 02:30:58;;;;;;;;;;;;;;;17.07;41.14;100621.16;4931039;28;97928;-74
2023/09/11 02:33:26;;;;;;;;;;;;;;;17.03;41.17;100620.16;4926927;28;98409;-67
2023/09/11 02:35:57;;;;;;;;;;;;;;;17.00;41.06;100619.97;4923735;28;98899;-67
2023/09/11 02:38:24;;;;;;;;;;;;;;;16.96;41.14;100621.69;4926180;28;102446;-74
2023/09/11 02:40:52;;;;;;;;;;;;;;;16.89;41.21;100620.16;4925840;28;100003;-67
2023/09/11 02:43:19;;;;;;;;;;;;;;;16.88;41.02;100617.78;4931142;28;98313;-74
2023/09/11 02:45:46;;;;;;;;;;;;;;;16.85;41.25;100623.81;4935667;28;99058;-67
2023/09/11 02:48:12;;;;;;;;;;;;;;;16.83;41.22;100623.34;4928794;28;99119;-67
2023/09/11 02:50:39;;;;;;;;;;;;;;;16.81;41.15;100617.38;4910696;28;101262;-74
2023/09/11 02:53:09;;;;;;;;;;;;;;;16.76;41.16;100617.50;4937007;28;98286;-74
2023/09/11 02:55:39;;;;;;;;;;;;;;;16.73;41.06;100618.06;4923243;28;98242;-74
2023/09/11 02:58:05;;;;;;;;;;;;;;;16.71;41.24;100612.94;4908750;28;98980;-67
2023/09/11 03:00:35;;;;;;;;;;;;;;;16.68;41.33;100616.25;4903431;28;98327;-67
2023/09/11 03:03:05;;;;;;;;;;;;;;;16.66;41.11;100618.47;4926601;28;99526;-74
2023/09/11 03:05:32;;;;;;;;;;;;;;;16.64;41.26;100612.53;4941993;28;98875;-74
2023/09/11 03:08:01;;;;;;;;;;;;;;;16.65;41.26;100614.94;4927846;28;98033;-74
2023/09/11 03:10:28;;;;;;;;;;;;;;;16.63;41.31;100614.44;4928196;28;98032;-74
2023/09/11 03:12:55;;;;;;;;;;;;;;;16.64;41.28;100616.06;4929142;28;97971;-74
2023/09/11 03:15:28;;;;;;;;;;;;;;;16.62;41.21;100612.03;4921817;28;116794;-67
2023/09/11 03:17:56;;;;;;;;;;;;;;;16.61;41.18;100611.22;4921965;28;99933;-74
2023/09/11 03:20:22;;;;;;;;;;;;;;;16.60;41.12;100606.88;4927085;28;98227;-73
2023/09/11 03:22:50;;;;;;;;;;;;;;;16.57;41.12;100609.41;4926506;28;98638;-74
2023/09/11 03:25:16;;;;;;;;;;;;;;;16.54;41.29;100604.56;4929414;28;98199;-67
2023/09/11 03:27:44;;;;;;;;;;;;;;;16.51;41.25;100600.56;4928698;28;98539;-66
2023/09/11 03:30:11;;;;;;;;;;;;;;;16.47;41.34;100599.56;4925978;28;98239;-66
2023/09/11 03:32:40;;;;;;;;;;;;;;;16.46;41.22;100603.38;4923728;28;98227;-74
2023/09/11 03:35:08;;;;;;;;;;;;;;;16.44;41.31;100600.16;4921677;28;98616;-67
2023/09/11 03:37:35;;;;;;;;;;;;;;;16.44;41.34;100592.00;4935494;28;100316;-67
2023/09/11 03:40:07;;;;;;;;;;;;;;;16.43;41.17;100610.25;4922873;28;98376;-74
2023/09/11 03:42:34;;;;;;;;;;;;;;;16.45;41.23;100596.31;4927109;28;98043;-67
2023/09/11 03:45:01;;;;;;;;;;;;;;;16.45;41.28;100599.03;4924212;28;99026;-74
2023/09/11 03:47:28;;;;;;;;;;;;;;;16.44;41.17;100600.16;4924176;28;99267;-73
2023/09/11 03:49:55;;;;;;;;;;;;;;;16.43;41.27;100602.06;4924087;28;100522;-67
2023/09/11 03:52:22;;;;;;;;;;;;;;;16.42;41.34;100594.19;4919717;28;99552;-67
2023/09/11 03:54:49;;;;;;;;;;;;;;;16.39;41.23;100601.06;4918927;28;98369;-67
2023/09/11 03:57:15;;;;;;;;;;;;;;;16.34;41.34;100601.16;4925835;28;98736;-67
2023/09/11 03:59:41;;;;;;;;;;;;;;;16.32;41.36;100594.41;4903733;28;98376;-74
2023/09/11 04:02:08;;;;;;;;;;;;;;;16.30;41.16;100600.16;4912841;28;99015;-67
2023/09/11 04:04:35;;;;;;;;;;;;;;;16.29;41.25;100595.03;4925055;28;98958;-67
2023/09/11 04:07:04;;;;;;;;;;;;;;;16.27;41.25;100598.06;4929227;28;98956;-74
2023/09/11 04:09:32;;;;;;;;;;;;;;;16.26;41.31;100592.91;4926086;28;99319;-66
2023/09/11 04:12:00;;;;;;;;;;;;;;;16.23;41.45;100594.31;4931013;28;100204;-74
2023/09/11 04:14:27;;;;;;;;;;;;;;;16.21;41.37;100593.81;4926893;28;99011;-74
2023/09/11 04:16:53;;;;;;;;;;;;;;;16.19;41.31;100593.28;4931678;28;98577;-67
2023/09/11 04:19:21;;;;;;;;;;;;;;;16.16;41.17;100592.00;4928081;28;100172;-74
2023/09/11 04:21:49;;;;;;;;;;;;;;;16.13;41.37;100598.03;4929282;28;98904;-67
2023/09/11 04:24:15;;;;;;;;;;;;;;;16.09;41.40;100596.22;4927150;28;98251;-67
2023/09/11 04:26:44;;;;;;;;;;;;;;;16.05;41.41;100596.00;4928838;28;98144;-74
2023/09/11 04:29:11;;;;;;;;;;;;;;;16.03;41.46;100590.06;4921575;28;98281;-67
2023/09/11 04:31:38;;;;;;;;;;;;;;;16.02;41.50;100590.38;4939637;28;98555;-74
2023/09/11 04:34:05;;;;;;;;;;;;;;;16.01;41.37;100596.91;4929152;28;99462;-67
2023/09/11 04:36:31;;;;;;;;;;;;;;;16.00;41.34;100593.41;4927160;28;99861;-67
2023/09/11 04:38:58;;;;;;;;;;;;;;;15.98;41.35;100595.59;4925894;28;98102;-67
2023/09/11 04:41:24;;;;;;;;;;;;;;;15.95;41.46;100593.47;4930682;28;100879;-74
2023/09/11 04:43:51;;;;;;;;;;;;;;;15.94;41.56;100591.88;4922723;28;97920;-67
2023/09/11 04:46:18;;;;;;;;;;;;;;;15.95;41.30;100596.19;4925778;28;98345;-68
2023/09/11 04:48:45;;;;;;;;;;;;;;;15.94;41.36;100597.31;4928084;28;99076;-74
2023/09/11 04:51:12;;;;;;;;;;;;;;;15.94;41.30;100591.88;4928889;28;98256;-67
2023/09/11 04:53:39;;;;;;;;;;;;;;;15.94;41.34;100589.94;4929763;28;98596;-75
2023/09/11 04:56:06;;;;;;;;;;;;;;;15.97;41.49;100595.91;4938316;28;102248;-74
2023/09/11 04:58:33;;;;;;;;;;;;;;;15.98;41.14;100592.88;4943138;28;98128;-67
2023/09/11 05:00:59;;;;;;;;;;;;;;;16.00;41.26;100589.88;4910316;28;98755;-67
2023/09/11 05:03:26;;;;;;;;;;;;;;;16.01;41.34;100589.56;4927828;28;101657;-74
2023/09/11 05:05:53;;;;;;;;;;;;;;;16.03;41.18;100594.69;4931327;28;99127;-75
2023/09/11 05:08:19;;;;;;;;;;;;;;;16.05;41.41;100593.28;4914305;28;99816;-74
2023/09/11 05:10:48;;;;;;;;;;;;;;;16.06;41.13;100589.47;4914972;28;99500;-74
2023/09/11 05:13:15;;;;;;;;;;;;;;;16.07;41.27;100587.53;4924654;28;99773;-67
2023/09/11 05:15:41;;;;;;;;;;;;;;;16.07;41.22;100585.66;4921105;28;98376;-75
2023/09/11 05:18:08;;;;;;;;;;;;;;;16.07;41.22;100582.94;4920305;28;98696;-67
2023/09/11 05:20:34;;;;;;;;;;;;;;;16.08;41.38;100597.34;4934458;28;98793;-67
2023/09/11 05:23:00;;;;;;;;;;;;;;;16.10;41.31;100595.09;4925023;28;98180;-74
2023/09/11 05:25:27;;;;;;;;;;;;;;;16.12;41.21;100598.34;4922273;28;98696;-74
2023/09/11 05:27:54;;;;;;;;;;;;;;;16.15;41.11;100595.84;4922639;28;98285;-68
2023/09/11 05:30:21;;;;;;;;;;;;;;;16.19;41.22;100599.56;4915517;28;98466;-67
2023/09/11 05:32:51;;;;;;;;;;;;;;;16.25;41.04;100594.00;4920359;28;99297;-75
2023/09/11 05:35:19;;;;;;;;;;;;;;;16.33;41.11;100605.00;4918461;28;98417;-68
2023/09/11 05:37:46;;;;;;;;;;;;;;;16.39;41.00;100601.06;4921550;28;98341;-75
2023/09/11 05:40:13;;;;;;;;;;;;;;;16.44;41.16;100595.53;4921025;28;98596;-74
2023/09/11 05:42:39;;;;;;;;;;;;;;;16.51;41.07;100591.59;4935284;28;98259;-74
2023/09/11 05:45:06;;;;;;;;;;;;;;;16.56;41.21;100595.00;4926546;28;98083;-74
2023/09/11 05:47:36;;;;;;;;;;;;;;;16.62;41.03;100601.13;4924220;28;98591;-67
2023/09/11 05:50:04;;;;;;;;;;;;;;;16.70;41.01;100594.97;4936234;28;98097;-74
2023/09/11 05:52:31;;;;;;;;;;;;;;;16.78;40.83;100602.47;4906527;28;98686;-74
2023/09/11 05:54:58;;;;;;;;;;;;;;;16.87;41.02;100602.56;4938088;28;98318;-74
2023/09/11 05:57:24;;;;;;;;;;;;;;;16.98;40.71;100600.38;4901883;28;100046;-74
2023/09/11 05:59:51;;;;;;;;;;;;;;;17.06;40.92;100597.75;4936273;28;98823;-68
2023/09/11 06:02:17;;;;;;;;;;;;;;;17.17;40.91;100598.31;4939317;28;98530;-74
2023/09/11 06:04:43;;;;;;;;;;;;;;;17.28;40.74;100601.59;4920980;28;98329;-68
2023/09/11 06:07:11;;;;;;;;;;;;;;;17.38;40.90;100598.66;4929963;28;98361;-68
2023/09/11 06:09:38;;;;;;;;;;;;;;;17.50;40.58;100601.63;4927374;28;98119;-75
2023/09/11 06:12:06;;;;;;;;;;;;;;;17.62;40.73;100601.84;4930967;28;99439;-68
2023/09/11 06:14:37;;;;;;;;;;;;;;;17.76;40.75;100606.44;4946159;28;98454;-74
2023/09/11 06:17:05;;;;;;;;;;;;;;;17.87;40.60;100602.34;4928714;28;98354;-68
2023/09/11 06:19:32;;;;;;;;;;;;;;;18.02;40.58;100604.66;4930612;28;98387;-75
2023/09/11 06:21:59;;;;;;;;;;;;;;;18.14;40.47;100601.34;4928046;28;101304;-68
2023/09/11 06:24:25;;;;;;;;;;;;;;;18.26;40.68;100603.50;4928724;28;99029;-75
2023/09/11 06:27:05;;;;;;;;;;;;;;;18.36;40.65;100597.75;4929198;28;98339;-67
2023/09/11 06:29:33;;;;;;;;;;;;;;;18.47;40.64;100595.53;4938166;28;98872;-68
2023/09/11 06:32:00;;;;;;;;;;;;;;;18.58;40.37;100586.72;4930868;28;98231;-74
2023/09/11 06:34:29;;;;;;;;;;;;;;;18.73;40.36;100593.69;4931404;28;101160;-75
2023/09/11 06:36:56;;;;;;;;;;;;;;;18.99;40.28;100592.94;4931302;28;98720;-67
2023/09/11 06:39:22;;;;;;;;;;;;;;;19.08;40.23;100589.06;4930827;28;100431;-67
2023/09/11 06:41:48;;;;;;;;;;;;;;;19.34;40.26;100589.06;4960195;28;98040;-68
2023/09/11 06:44:16;;;;;;;;;;;;;;;19.44;40.30;100589.84;4912861;28;98479;-75
2023/09/11 06:46:43;;;;;;;;;;;;;;;19.56;40.20;100584.50;4916981;28;98052;-68
2023/09/11 06:49:09;;;;;;;;;;;;;;;19.69;40.18;100583.56;4932325;28;98032;-68
2023/09/11 06:51:36;;;;;;;;;;;;;;;19.82;40.20;100584.50;4920769;28;98060;-68
2023/09/11 06:54:03;;;;;;;;;;;;;;;20.02;40.15;100588.44;4940778;28;101135;-75
2023/09/11 06:56:32;;;;;;;;;;;;;;;21.41;38.94;100588.38;4927854;28;98570;-75
2023/09/11 06:58:59;;;;;;;;;;;;;;;22.55;37.95;100574.94;4936782;28;98322;-75
2023/09/11 07:01:26;;;;;;;;;;;;;;;21.95;39.02;100584.75;4930110;28;98382;-68
2023/09/11 07:03:53;;;;;;;;;;;;;;;21.96;39.16;100592.63;4928383;28;99156;-68
2023/09/11 07:06:20;;;;;;;;;;;;;;;23.38;37.97;100575.41;4925830;28;98080;-68
2023/09/11 07:08:46;;;;;;;;;;;;;;;23.61;37.93;100586.63;4922339;28;100181;-68
2023/09/11 07:11:16;;;;;;;;;;;;;;;23.05;38.90;100594.91;4919607;28;98283;-70
2023/09/11 07:13:44;;;;;;;;;;;;;;;22.81;39.21;100595.75;4905954;28;98362;-68
2023/09/11 07:16:10;;;;;;;;;;;;;;;22.57;39.33;100593.84;4921778;28;98510;-68
2023/09/11 07:18:37;;;;;;;;;;;;;;;22.39;39.62;100594.06;4936853;28;99731;-75
2023/09/11 07:21:05;;;;;;;;;;;;;;;22.28;39.66;100595.66;4938092;28;99431;-69
2023/09/11 07:23:33;;;;;;;;;;;;;;;22.20;39.85;100593.81;4937999;28;99472;-75
2023/09/11 07:26:00;;;;;;;;;;;;;;;22.17;39.91;100600.03;4909554;28;98468;-68
2023/09/11 07:28:27;;;;;;;;;;;;;;;22.16;40.09;100596.44;4920374;28;99652;-68
2023/09/11 07:30:55;;;;;;;;;;;;;;;22.18;39.95;100596.94;4935688;28;98364;-75
2023/09/11 07:33:22;;;;;;;;;;;;;;;22.22;39.89;100589.59;4937121;28;99303;-75
2023/09/11 07:35:49;;;;;;;;;;;;;;;22.29;39.94;100592.59;4938142;28;98063;-68
2023/09/11 07:38:16;;;;;;;;;;;;;;;22.38;39.75;100595.22;4942692;28;98164;-68
2023/09/11 07:40:43;;;;;;;;;;;;;;;22.51;39.66;100585.00;4909937;28;99345;-68
2023/09/11 07:43:11;;;;;;;;;;;;;;;22.64;39.69;100586.63;4939029;28;99426;-68
2023/09/11 07:45:37;;;;;;;;;;;;;;;22.79;39.54;100582.34;4911952;28;98156;-73
2023/09/11 07:48:04;;;;;;;;;;;;;;;23.00;39.54;100580.25;4928512;28;98183;-75
2023/09/11 07:50:30;;;;;;;;;;;;;;;23.25;39.34;100588.41;4921698;28;98450;-68
2023/09/11 07:52:58;;;;;;;;;;;;;;;23.53;38.99;100578.19;4908687;28;98389;-68
2023/09/11 07:55:25;;;;;;;;;;;;;;;23.89;38.87;100579.16;4940358;28;98974;-75
2023/09/11 07:57:52;;;;;;;;;;;;;;;24.33;38.68;100573.56;4910014;28;98392;-68
2023/09/11 08:00:21;;;;;;;;;;;;;;;24.81;38.47;100584.50;4908330;28;99430;-75
2023/09/11 08:02:48;;;;;;;;;;;;;;;25.37;38.06;100578.56;4944242;28;98799;-68
2023/09/11 08:05:15;;;;;;;;;;;;;;;25.96;37.54;100577.28;4925476;28;98069;-75
2023/09/11 08:07:42;;;;;;;;;;;;;;;26.54;37.42;100568.75;4927747;28;98193;-67
2023/09/11 08:10:08;;;;;;;;;;;;;;;27.13;37.28;100569.94;4932499;28;100195;-73
2023/09/11 08:12:35;;;;;;;;;;;;;;;27.70;37.04;100566.97;4929626;28;99953;-64
2023/09/11 08:15:02;;;;;;;;;;;;;;;28.30;36.58;100568.72;4938712;28;99129;-72
2023/09/11 08:17:29;;;;;;;;;;;;;;;28.83;36.45;100571.00;4956207;28;99985;-73
2023/09/11 08:19:55;;;;;;;;;;;;;;;29.34;36.44;100570.81;4925565;28;98078;-65
2023/09/11 08:22:21;;;;;;;;;;;;;;;29.88;36.36;100568.16;4936685;28;97902;-72
2023/09/11 08:24:47;;;;;;;;;;;;;;;30.46;36.03;100574.50;4925794;28;98658;-66
2023/09/11 08:27:13;;;;;;;;;;;;;;;31.01;35.80;100565.63;4931505;28;98264;-66
2023/09/11 08:29:39;;;;;;;;;;;;;;;31.59;35.60;100557.75;4930989;28;98087;-65
2023/09/11 08:32:06;;;;;;;;;;;;;;;32.20;35.12;100567.22;4939144;28;114518;-65
2023/09/11 08:34:32;;;;;;;;;;;;;;;32.74;35.44;100561.91;4941523;28;98944;-73
2023/09/11 08:36:58;;;;;;;;;;;;;;;33.29;35.17;100562.81;4924817;28;128058;-66
2023/09/11 08:39:25;;;;;;;;;;;;;;;33.81;34.84;100562.44;4937648;28;107330;-72
2023/09/11 08:41:51;;;;;;;;;;;;;;;34.36;34.59;100552.72;4926319;28;99344;-65
2023/09/11 08:44:17;;;;;;;;;;;;;;;34.84;34.55;100561.78;4941818;28;99510;-64
2023/09/11 08:46:45;;;;;;;;;;;;;;;35.28;34.68;100557.66;4930991;28;99629;-64
2023/09/11 08:49:11;;;;;;;;;;;;;;;35.83;34.07;100555.16;4942177;28;99555;-65
2023/09/11 08:51:48;;;;;;;;;;;;;;;36.44;34.02;100556.41;4942403;28;98889;-65
2023/09/11 08:54:14;;;;;;;;;;;;;;;37.01;34.12;100554.81;4943618;28;99294;-65
2023/09/11 08:56:41;;;;;;;;;;;;;;;37.51;33.77;100550.47;4928992;28;98190;-72
2023/09/11 08:59:07;;;;;;;;;;;;;;;38.13;33.65;100545.22;4926540;28;99365;-65
2023/09/11 09:01:33;;;;;;;;;;;;;;;38.73;32.80;100556.31;4919962;28;98382;-65
2023/09/11 09:03:59;;;;;;;;;;;;;;;39.19;33.02;100547.34;4927642;28;98248;-68
2023/09/11 09:06:25;;;;;;;;;;;;;;;39.37;33.23;100543.84;4924774;28;98131;-68
2023/09/11 09:08:51;;;;;;;;;;;;;;;39.67;32.85;100539.38;4938403;28;98341;-70
2023/09/11 09:11:18;;;;;;;;;;;;;;;39.88;33.02;100532.84;4938587;28;99261;-64
2023/09/11 09:13:44;;;;;;;;;;;;;;;40.02;33.13;100537.13;4938308;28;98944;-69
2023/09/11 09:16:10;;;;;;;;;;;;;;;40.14;32.92;100535.41;4923481;28;98928;-70
2023/09/11 09:18:36;;;;;;;;;;;;;;;39.74;33.53;100531.44;4926253;28;97945;-70
2023/09/11 09:21:04;;;;;;;;;;;;;;;39.27;34.19;100531.75;4910953;28;98415;-64
2023/09/11 09:23:35;;;;;;;;;;;;;;;39.23;34.24;100525.50;4934990;28;98401;-64
2023/09/11 09:26:08;;;;;;;;;;;;;;;39.59;34.21;100533.25;4935949;28;99993;-64
2023/09/11 09:28:34;;;;;;;;;;;;;;;40.36;33.46;100521.13;4926514;28;98267;-70
2023/09/11 09:31:00;;;;;;;;;;;;;;;40.84;33.18;100510.88;4915061;28;98036;-70
2023/09/11 09:33:26;;;;;;;;;;;;;;;41.36;33.01;100510.81;4931694;28;98476;-71
2023/09/11 09:35:52;;;;;;;;;;;;;;;41.96;32.72;100514.72;4925951;28;119168;-65
2023/09/11 09:38:21;;;;;;;;;;;;;;;41.93;32.88;100505.91;4918965;28;98962;-64
2023/09/11 09:40:48;;;;;;;;;;;;;;;42.14;32.45;100508.91;4941979;28;98444;-71
2023/09/11 09:43:16;;;;;;;;;;;;;;;41.96;32.76;100500.56;4922901;28;99181;-64
2023/09/11 09:45:42;;;;;;;;;;;;;;;42.26;33.00;100496.56;4927631;28;100342;-71
2023/09/11 09:48:14;;;;;;;;;;;;;;;42.61;32.58;100493.81;4924695;28;98614;-64
2023/09/11 09:50:57;;;;;;;;;;;;;;;42.70;33.08;100486.53;4942752;28;98986;-65
2023/09/11 09:53:31;;;;;;;;;;;;;;;42.72;32.76;100481.13;4921181;28;98917;-65
2023/09/11 09:56:04;;;;;;;;;;;;;;;42.61;33.34;100473.22;4952313;28;98595;-70
2023/09/11 09:58:35;;;;;;;;;;;;;;;42.63;33.17;100468.63;4924299;28;100466;-72
2023/09/11 10:01:03;;;;;;;;;;;;;;;42.68;33.06;100470.00;4946568;28;118239;-66
2023/09/11 10:03:40;;;;;;;;;;;;;;;42.67;33.52;100465.63;4928796;28;98278;-66
2023/09/11 10:06:07;;;;;;;;;;;;;;;42.69;33.35;100453.81;4925774;28;98601;-65
2023/09/11 10:08:33;;;;;;;;;;;;;;;42.89;32.77;100456.69;4923945;28;98375;-66
2023/09/11 10:10:59;;;;;;;;;;;;;;;43.15;32.94;100454.00;4929251;28;117689;-72
2023/09/11 10:13:27;;;;;;;;;;;;;;;43.42;32.84;100447.16;4924549;28;98393;-66
2023/09/11 10:15:53;;;;;;;;;;;;;;;43.68;32.80;100452.13;4938984;28;98653;-72
2023/09/11 10:18:20;;;;;;;;;;;;;;;43.89;32.70;100444.41;4925302;28;98262;-66
2023/09/11 10:20:45;;;;;;;;;;;;;;;44.08;32.63;100442.78;4938320;28;127794;-73
2023/09/11 10:23:12;;;;;;;;;;;;;;;44.22;32.45;100446.81;4941547;28;118707;-72
2023/09/11 10:25:41;;;;;;;;;;;;;;;44.41;32.37;100435.88;4942905;28;99894;-72
2023/09/11 10:28:08;;;;;;;;;;;;;;;44.48;32.20;100432.59;4927990;28;121787;-73
2023/09/11 10:30:45;;;;;;;;;;;;;;;44.54;32.46;100433.44;4941328;28;100271;-73
2023/09/11 10:33:17;;;;;;;;;;;;;;;44.53;32.30;100418.44;4943602;28;107038;-66
2023/09/11 10:35:43;;;;;;;;;;;;;;;44.51;32.41;100417.38;4923008;28;98797;-66
2023/09/11 10:38:09;;;;;;;;;;;;;;;44.51;32.49;100412.47;4921823;28;129704;-73
2023/09/11 10:40:36;;;;;;;;;;;;;;;44.56;32.27;100406.06;4927087;28;98614;-66
2023/09/11 10:43:03;;;;;;;;;;;;;;;44.63;32.30;100410.50;4927848;28;98065;-73
2023/09/11 10:45:30;;;;;;;;;;;;;;;44.65;32.38;100410.81;4924467;28;99373;-66
2023/09/11 10:47:56;;;;;;;;;;;;;;;44.71;32.29;100405.94;4938405;28;109452;-73
2023/09/11 10:50:35;;;;;;;;;;;;;;;44.68;32.16;100397.66;4919605;28;98183;-66
2023/09/11 10:53:07;;;;;;;;;;;;;;;44.65;32.05;100393.78;4933879;28;99711;-73
2023/09/11 10:55:33;;;;;;;;;;;;;;;44.33;32.57;100395.81;4942968;28;98595;-66
2023/09/11 10:58:02;;;;;;;;;;;;;;;44.08;32.68;100397.38;4938434;28;103961;-74
2023/09/11 11:00:28;;;;;;;;;;;;;;;43.88;32.91;100388.94;4926596;28;99643;-66
2023/09/11 11:02:57;;;;;;;;;;;;;;;43.57;32.94;100391.16;4952774;28;99851;-67
2023/09/11 11:05:25;;;;;;;;;;;;;;;43.30;33.53;100386.69;4921423;28;98021;-74
2023/09/11 11:07:51;;;;;;;;;;;;;;;43.15;33.26;100391.66;4940361;28;98539;-66
2023/09/11 11:10:17;;;;;;;;;;;;;;;43.16;33.10;100386.78;4924186;28;98563;-74
2023/09/11 11:12:44;;;;;;;;;;;;;;;43.29;32.87;100382.31;4928746;28;100382;-74
2023/09/11 11:15:24;;;;;;;;;;;;;;;43.46;32.92;100382.53;4923202;28;104935;-66
2023/09/11 11:18:14;;;;;;;;;;;;;;;43.55;32.79;100373.88;4925058;28;98144;-66
2023/09/11 11:20:59;;;;;;;;;;;;;;;43.52;32.79;100368.41;4920484;28;98503;-67
2023/09/11 11:23:26;;;;;;;;;;;;;;;43.42;32.86;100370.59;4953343;28;98129;-74
2023/09/11 11:25:52;;;;;;;;;;;;;;;43.45;32.61;100369.59;4926783;28;98499;-74
2023/09/11 11:28:22;;;;;;;;;;;;;;;43.38;32.68;100365.13;4910292;28;117872;-67
2023/09/11 11:30:52;;;;;;;;;;;;;;;43.32;32.87;100372.81;4918862;28;98722;-67
2023/09/11 11:33:22;;;;;;;;;;;;;;;43.23;32.90;100367.25;4901484;28;98520;-75
2023/09/11 11:35:48;;;;;;;;;;;;;;;43.00;33.02;100371.88;4921099;28;104490;-67
2023/09/11 11:38:17;;;;;;;;;;;;;;;42.86;33.06;100370.63;4906422;28;99953;-75
2023/09/11 11:40:50;;;;;;;;;;;;;;;42.83;32.95;100368.78;4941493;28;98242;-66
2023/09/11 11:43:17;;;;;;;;;;;;;;;42.71;33.59;100366.28;4936222;28;98788;-75
2023/09/11 11:45:44;;;;;;;;;;;;;;;42.58;33.59;100364.53;4905455;28;98530;-75
2023/09/11 11:48:14;;;;;;;;;;;;;;;42.58;33.61;100366.59;4919839;28;98836;-67
2023/09/11 11:50:42;;;;;;;;;;;;;;;42.45;33.79;100358.44;4938251;28;98314;-67
2023/09/11 11:53:13;;;;;;;;;;;;;;;42.31;33.49;100360.00;4940836;28;98682;-67
2023/09/11 11:55:39;;;;;;;;;;;;;;;42.14;33.90;100362.53;4934591;28;100299;-67
2023/09/11 11:58:08;;;;;;;;;;;;;;;41.92;33.90;100362.13;4924121;28;98469;-74
2023/09/11 12:00:36;;;;;;;;;;;;;;;41.79;33.76;100355.97;4917730;28;98239;-74
2023/09/11 12:03:07;;;;;;;;;;;;;;;41.63;34.10;100351.56;4927150;28;98358;-75
2023/09/11 12:05:34;;;;;;;;;;;;;;;41.43;34.13;100349.38;4918494;28;98327;-66
2023/09/11 12:08:00;;;;;;;;;;;;;;;41.27;34.43;100355.41;4919231;28;98395;-67
2023/09/11 12:10:31;;;;;;;;;;;;;;;41.10;34.35;100349.41;4911175;28;98781;-74
2023/09/11 12:12:57;;;;;;;;;;;;;;;40.97;34.21;100350.44;4937088;28;98476;-75
2023/09/11 12:15:24;;;;;;;;;;;;;;;40.86;34.42;100355.03;4924968;28;100961;-74
2023/09/11 12:17:50;;;;;;;;;;;;;;;40.71;34.51;100346.47;4925011;28;98201;-67
2023/09/11 12:20:20;;;;;;;;;;;;;;;40.54;34.59;100346.06;4927865;28;98521;-74
2023/09/11 12:22:47;;;;;;;;;;;;;;;40.35;34.65;100355.88;4918773;28;98359;-67
2023/09/11 12:25:13;;;;;;;;;;;;;;;40.21;34.79;100346.06;4933901;28;98345;-74
2023/09/11 12:27:40;;;;;;;;;;;;;;;40.07;34.85;100341.81;4935175;28;98887;-66
2023/09/11 12:30:06;;;;;;;;;;;;;;;39.88;34.89;100334.66;4923794;28;103356;-67
2023/09/11 12:32:33;;;;;;;;;;;;;;;39.68;35.01;100344.41;4923657;28;98981;-75
2023/09/11 12:35:00;;;;;;;;;;;;;;;39.52;34.93;100330.59;4922119;28;99876;-75
2023/09/11 12:37:26;;;;;;;;;;;;;;;39.38;35.27;100332.03;4944081;28;98151;-67
2023/09/11 12:39:53;;;;;;;;;;;;;;;39.21;34.90;100337.13;4929665;28;98180;-74